Time;durP1;ratioP1;P1;durP2;ratioP2;P2;SDS_P1;SDS_P2;PMS_P1;PMS_P2;Temp;Humidity;BMP_temperature;BMP_pressure;BME280_temperature;BME280_humidity;BME280_pressure;Samples;Min_cycle;Max_cycle;Signal;HPM_P1;HPM_P2
2020/12/11 00:02:24;;;;;;;21.05;9.57;;;1.60;78.70;;;;;;5051385;28;20409;-44
2020/12/11 00:04:50;;;;;;;21.02;9.77;;;1.60;78.80;;;;;;5051555;28;20055;-45
2020/12/11 00:07:16;;;;;;;19.42;9.45;;;1.60;78.90;;;;;;5041336;28;20389;-48
2020/12/11 00:09:42;;;;;;;18.92;9.90;;;1.50;79.00;;;;;;5033438;28;20482;-44
2020/12/11 00:12:07;;;;;;;20.25;9.57;;;1.50;79.10;;;;;;5050501;28;20029;-44
2020/12/11 00:14:33;;;;;;;21.90;10.10;;;1.40;79.10;;;;;;5045972;28;20037;-44
2020/12/11 00:16:59;;;;;;;20.05;10.10;;;1.40;79.30;;;;;;5035257;28;20033;-44
2020/12/11 00:19:25;;;;;;;21.92;10.05;;;1.40;79.50;;;;;;5034988;28;20040;-44
2020/12/11 00:21:50;;;;;;;20.88;9.80;;;1.40;79.40;;;;;;5034904;28;20037;-43
2020/12/11 00:24:16;;;;;;;20.27;9.98;;;1.30;79.50;;;;;;5034226;28;20040;-43
2020/12/11 00:26:42;;;;;;;22.10;9.88;;;1.30;79.80;;;;;;5035627;28;20123;-45
2020/12/11 00:29:08;;;;;;;20.98;9.68;;;1.30;79.80;;;;;;5054883;28;20059;-43
2020/12/11 00:31:33;;;;;;;17.63;8.90;;;1.30;80.00;;;;;;5054620;28;20068;-44
2020/12/11 00:33:59;;;;;;;19.88;9.82;;;1.30;80.20;;;;;;5052019;28;20409;-45
2020/12/11 00:36:26;;;;;;;20.30;10.40;;;1.30;80.10;;;;;;5034647;28;20029;-44
2020/12/11 00:38:52;;;;;;;20.50;9.68;;;1.30;80.00;;;;;;5017033;28;20163;-47
2020/12/11 00:41:18;;;;;;;22.42;10.02;;;1.30;80.10;;;;;;5035265;28;20041;-46
2020/12/11 00:43:44;;;;;;;20.38;9.65;;;1.30;80.10;;;;;;5034544;28;20091;-43
2020/12/11 00:46:11;;;;;;;25.05;10.85;;;1.20;80.40;;;;;;5034764;28;20393;-43
2020/12/11 00:48:37;;;;;;;23.13;10.35;;;1.10;80.80;;;;;;5046504;28;20079;-43
2020/12/11 00:51:03;;;;;;;23.10;10.57;;;1.00;81.40;;;;;;5054498;28;20041;-44
2020/12/11 00:53:29;;;;;;;22.10;10.55;;;1.00;81.60;;;;;;5054159;28;20040;-45
2020/12/11 00:55:56;;;;;;;26.10;11.65;;;1.10;82.00;;;;;;5054245;28;20036;-44
2020/12/11 00:58:21;;;;;;;20.90;11.02;;;1.20;82.00;;;;;;5053361;28;20568;-43
2020/12/11 01:00:47;;;;;;;20.70;10.50;;;1.20;82.20;;;;;;5054095;28;20116;-45
2020/12/11 01:03:13;;;;;;;23.02;11.88;;;1.30;81.90;;;;;;5054648;28;20109;-42
2020/12/11 01:05:39;;;;;;;24.75;11.40;;;1.30;81.70;;;;;;5054070;28;20060;-45
2020/12/11 01:08:05;;;;;;;23.00;10.57;;;1.40;81.80;;;;;;5054007;28;20488;-47
2020/12/11 01:10:32;;;;;;;22.40;10.85;;;1.40;81.50;;;;;;5052447;28;20041;-44
2020/12/11 01:12:58;;;;;;;19.77;10.65;;;1.40;81.60;;;;;;5052777;28;20435;-45
2020/12/11 01:15:24;;;;;;;19.70;10.68;;;1.50;81.90;;;;;;5038501;28;20136;-45
2020/12/11 01:17:50;;;;;;;21.00;10.55;;;1.50;81.90;;;;;;5034174;28;20037;-43
2020/12/11 01:20:16;;;;;;;23.70;11.07;;;1.60;81.60;;;;;;5033238;28;20179;-43
2020/12/11 01:22:41;;;;;;;24.42;11.20;;;1.70;81.80;;;;;;5033471;28;20545;-44
2020/12/11 01:25:08;;;;;;;22.80;11.88;;;1.80;81.40;;;;;;5033879;28;20039;-45
2020/12/11 01:27:33;;;;;;;20.58;10.93;;;1.70;81.40;;;;;;5049261;28;20033;-43
2020/12/11 01:29:59;;;;;;;24.40;11.27;;;1.60;81.80;;;;;;5053687;28;20405;-44
2020/12/11 01:32:25;;;;;;;25.50;12.27;;;1.60;81.90;;;;;;5042908;28;20030;-45
2020/12/11 01:34:51;;;;;;;24.27;11.52;;;1.60;81.90;;;;;;5043419;28;20048;-43
2020/12/11 01:37:16;;;;;;;21.85;11.15;;;1.60;81.90;;;;;;5052520;28;20124;-43
2020/12/11 01:39:42;;;;;;;21.88;10.75;;;1.60;81.90;;;;;;5053611;28;20110;-45
2020/12/11 01:42:11;;;;;;;21.83;10.98;;;1.60;81.90;;;;;;5035897;28;20037;-44
2020/12/11 01:44:36;;;;;;;18.98;10.15;;;1.50;81.80;;;;;;5053096;28;20473;-43
2020/12/11 01:47:03;;;;;;;25.58;11.75;;;1.40;81.80;;;;;;5053519;28;20271;-43
2020/12/11 01:49:29;;;;;;;25.08;11.75;;;1.40;81.90;;;;;;5033142;28;20436;-46
2020/12/11 01:51:55;;;;;;;26.30;11.88;;;1.20;82.20;;;;;;5033341;28;20096;-45
2020/12/11 01:54:21;;;;;;;26.60;10.45;;;1.20;82.60;;;;;;5033361;28;20674;-45
2020/12/11 01:56:59;;;;;;;25.27;12.13;;;1.10;83.20;;;;;;5033368;28;20474;-44
2020/12/11 01:59:32;;;;;;;23.63;11.70;;;1.00;83.50;;;;;;5033191;28;20428;-44
2020/12/11 02:02:00;;;;;;;21.38;10.82;;;0.90;83.80;;;;;;5031823;28;20482;-45
2020/12/11 02:04:26;;;;;;;26.30;11.20;;;1.00;83.70;;;;;;5032887;28;20040;-43
2020/12/11 02:06:52;;;;;;;22.60;10.88;;;1.00;83.60;;;;;;5033550;28;20030;-44
2020/12/11 02:09:20;;;;;;;24.73;12.20;;;1.00;83.60;;;;;;5033251;28;20034;-43
2020/12/11 02:11:49;;;;;;;25.35;11.70;;;0.90;83.50;;;;;;5015104;28;20513;-45
2020/12/11 02:14:14;;;;;;;23.92;11.80;;;1.00;83.30;;;;;;5038718;28;20025;-44
2020/12/11 02:16:40;;;;;;;24.48;11.93;;;0.80;83.50;;;;;;5052429;28;20057;-43
2020/12/11 02:19:06;;;;;;;22.02;10.93;;;0.70;84.10;;;;;;5043260;28;20500;-46
2020/12/11 02:21:32;;;;;;;25.60;11.93;;;0.70;84.30;;;;;;5032579;28;20051;-46
2020/12/11 02:23:58;;;;;;;26.35;11.57;;;0.70;84.20;;;;;;5033616;28;20030;-44
2020/12/11 02:26:24;;;;;;;23.25;11.57;;;0.70;84.30;;;;;;5031438;28;20032;-46
2020/12/11 02:28:50;;;;;;;24.80;12.32;;;0.70;84.20;;;;;;5051104;28;20075;-45
2020/12/11 02:31:16;;;;;;;22.77;11.32;;;0.70;84.20;;;;;;5052863;28;20036;-43
2020/12/11 02:33:42;;;;;;;28.95;11.48;;;0.80;84.10;;;;;;5051694;28;20565;-44
2020/12/11 02:36:08;;;;;;;23.20;11.82;;;0.80;84.20;;;;;;5032872;28;20041;-44
2020/12/11 02:38:34;;;;;;;27.38;12.50;;;0.80;84.20;;;;;;5032241;28;20026;-44
2020/12/11 02:41:01;;;;;;;24.77;11.75;;;0.80;84.20;;;;;;5033272;28;20038;-45
2020/12/11 02:43:28;;;;;;;24.73;12.05;;;0.80;84.10;;;;;;5032300;28;20029;-44
2020/12/11 02:45:56;;;;;;;25.30;12.15;;;0.80;84.10;;;;;;5032525;28;20033;-44
2020/12/11 02:48:23;;;;;;;26.08;11.68;;;0.80;84.00;;;;;;5042473;28;20473;-44
2020/12/11 02:50:49;;;;;;;24.77;11.38;;;0.80;83.80;;;;;;5052023;28;20069;-43
2020/12/11 02:53:14;;;;;;;23.23;12.15;;;0.90;83.60;;;;;;5052620;28;20029;-43
2020/12/11 02:55:40;;;;;;;22.90;11.07;;;0.90;83.30;;;;;;5052333;28;20040;-44
2020/12/11 02:58:06;;;;;;;26.67;11.52;;;0.80;83.00;;;;;;5050260;28;20028;-44
2020/12/11 03:00:32;;;;;;;25.20;11.73;;;0.70;83.40;;;;;;5051856;28;20033;-43
2020/12/11 03:02:57;;;;;;;25.48;12.23;;;0.50;84.20;;;;;;5050949;28;20040;-43
2020/12/11 03:05:23;;;;;;;24.48;11.52;;;0.60;84.20;;;;;;5052071;28;20032;-45
2020/12/11 03:07:49;;;;;;;25.98;12.02;;;0.70;84.20;;;;;;5052129;28;20567;-44
2020/12/11 03:10:14;;;;;;;27.13;11.40;;;0.70;84.00;;;;;;5052481;28;20037;-44
2020/12/11 03:12:40;;;;;;;24.20;11.43;;;0.70;83.60;;;;;;5051521;28;20382;-44
2020/12/11 03:15:06;;;;;;;26.13;12.55;;;0.70;83.20;;;;;;5035833;28;20057;-44
2020/12/11 03:17:32;;;;;;;27.95;11.80;;;0.70;83.20;;;;;;5031984;28;20393;-45
2020/12/11 03:19:58;;;;;;;20.83;10.93;;;0.80;83.20;;;;;;5030713;28;20037;-43
2020/12/11 03:22:24;;;;;;;24.95;11.55;;;0.80;82.90;;;;;;5030964;28;20401;-45
2020/12/11 03:24:49;;;;;;;22.63;11.32;;;0.50;83.30;;;;;;5031885;28;20083;-43
2020/12/11 03:27:15;;;;;;;24.02;12.25;;;0.50;83.50;;;;;;5037425;28;20100;-43
2020/12/11 03:29:41;;;;;;;19.90;10.55;;;0.60;83.50;;;;;;5051669;28;20037;-44
2020/12/11 03:32:07;;;;;;;24.65;11.25;;;0.50;83.60;;;;;;5051075;28;20037;-46
2020/12/11 03:34:32;;;;;;;26.02;11.10;;;0.50;83.60;;;;;;5044415;28;20030;-44
2020/12/11 03:36:58;;;;;;;21.83;11.40;;;0.60;83.80;;;;;;5032083;28;20381;-44
2020/12/11 03:39:24;;;;;;;25.55;11.65;;;0.70;83.60;;;;;;5032384;28;20037;-43
2020/12/11 03:41:53;;;;;;;23.35;12.60;;;0.70;83.40;;;;;;5031575;28;20092;-44
2020/12/11 03:44:19;;;;;;;24.17;12.20;;;0.70;83.00;;;;;;5033364;28;20493;-46
2020/12/11 03:46:45;;;;;;;24.63;11.23;;;0.70;82.70;;;;;;5035527;28;20636;-44
2020/12/11 03:49:11;;;;;;;24.83;11.50;;;0.70;82.70;;;;;;5036269;28;20116;-44
2020/12/11 03:51:37;;;;;;;23.35;11.82;;;0.70;82.70;;;;;;5035360;28;20029;-44
2020/12/11 03:54:04;;;;;;;22.83;10.75;;;0.70;82.70;;;;;;5034884;28;20041;-43
2020/12/11 03:56:29;;;;;;;23.52;11.68;;;0.70;82.60;;;;;;5034082;28;20036;-43
2020/12/11 03:58:55;;;;;;;25.05;12.05;;;0.70;82.90;;;;;;5035297;28;20037;-44
2020/12/11 04:01:21;;;;;;;27.52;12.85;;;0.70;82.90;;;;;;5035390;28;20070;-44
2020/12/11 04:03:47;;;;;;;24.85;11.85;;;0.70;82.70;;;;;;5033964;28;20114;-43
2020/12/11 04:06:15;;;;;;;26.52;11.48;;;0.60;82.70;;;;;;5052073;28;20436;-44
2020/12/11 04:08:42;;;;;;;26.67;12.13;;;0.50;82.90;;;;;;5055057;28;20033;-44
2020/12/11 04:11:10;;;;;;;28.25;11.55;;;0.30;83.70;;;;;;5055308;28;20033;-42
2020/12/11 04:13:36;;;;;;;23.90;11.18;;;0.20;84.40;;;;;;5054053;28;20059;-43
2020/12/11 04:16:02;;;;;;;25.67;12.02;;;0.30;84.50;;;;;;5033914;28;20054;-43
2020/12/11 04:18:29;;;;;;;29.45;13.32;;;0.40;84.40;;;;;;5034519;28;20058;-44
2020/12/11 04:20:58;;;;;;;26.80;12.68;;;0.40;84.60;;;;;;5035296;28;20481;-44
2020/12/11 04:23:25;;;;;;;27.48;12.93;;;0.50;84.50;;;;;;5035775;28;20030;-44
2020/12/11 04:25:51;;;;;;;25.40;12.80;;;0.60;84.10;;;;;;5035728;28;20438;-45
2020/12/11 04:28:17;;;;;;;28.98;12.48;;;0.70;83.70;;;;;;5054752;28;20025;-44
2020/12/11 04:30:43;;;;;;;25.17;11.30;;;0.70;83.30;;;;;;5045004;28;20051;-44
2020/12/11 04:33:09;;;;;;;26.63;12.75;;;0.70;83.10;;;;;;5034837;28;20485;-43
2020/12/11 04:35:35;;;;;;;26.92;11.57;;;0.60;83.10;;;;;;5035090;28;20120;-44
2020/12/11 04:38:03;;;;;;;22.95;10.65;;;0.60;83.00;;;;;;5035052;28;20481;-44
2020/12/11 04:40:29;;;;;;;23.58;12.38;;;0.60;83.20;;;;;;5053152;28;20029;-45
2020/12/11 04:42:55;;;;;;;26.13;11.60;;;0.50;83.50;;;;;;5054544;28;20112;-44
2020/12/11 04:45:23;;;;;;;24.80;10.93;;;0.50;83.80;;;;;;5052181;28;20036;-47
2020/12/11 04:47:50;;;;;;;24.08;11.60;;;0.40;84.00;;;;;;5045448;28;20033;-44
2020/12/11 04:50:17;;;;;;;24.45;11.68;;;0.50;83.90;;;;;;5034750;28;20058;-43
2020/12/11 04:52:44;;;;;;;23.27;12.15;;;0.40;83.70;;;;;;5040888;28;20191;-42
2020/12/11 04:55:15;;;;;;;27.25;12.00;;;0.20;84.30;;;;;;5052408;28;20033;-44
2020/12/11 04:57:50;;;;;;;27.33;11.55;;;0.10;85.20;;;;;;5045204;28;20536;-43
2020/12/11 05:00:18;;;;;;;24.40;12.70;;;0.20;85.20;;;;;;5052846;28;20036;-44
2020/12/11 05:02:45;;;;;;;22.63;10.85;;;0.30;84.80;;;;;;5054001;28;20048;-47
2020/12/11 05:05:13;;;;;;;26.17;13.55;;;0.40;84.40;;;;;;5041921;28;20481;-45
2020/12/11 05:07:38;;;;;;;24.05;11.05;;;0.40;84.10;;;;;;5034367;28;20504;-44
2020/12/11 05:10:08;;;;;;;31.17;12.45;;;0.40;83.90;;;;;;5034360;28;20112;-44
2020/12/11 05:12:35;;;;;;;23.92;11.90;;;0.40;83.80;;;;;;5034461;28;20385;-46
2020/12/11 05:15:04;;;;;;;25.70;11.88;;;0.40;83.90;;;;;;5045933;28;20053;-44
2020/12/11 05:17:32;;;;;;;25.70;11.38;;;0.30;84.50;;;;;;5053712;28;20033;-45
2020/12/11 05:19:59;;;;;;;28.73;12.30;;;0.20;84.80;;;;;;5052701;28;20033;-45
2020/12/11 05:22:29;;;;;;;25.92;11.73;;;0.20;85.60;;;;;;5053742;28;20508;-45
2020/12/11 05:24:59;;;;;;;25.67;11.60;;;0.00;86.00;;;;;;5053960;28;20032;-44
2020/12/11 05:27:33;;;;;;;24.92;11.27;;;0.10;86.30;;;;;;5054184;28;20033;-44
2020/12/11 05:30:18;;;;;;;24.67;11.85;;;0.20;86.30;;;;;;5046878;28;20120;-42
2020/12/11 05:32:57;;;;;;;28.42;13.30;;;0.40;85.90;;;;;;5052138;28;20439;-44
2020/12/11 05:35:28;;;;;;;27.67;12.63;;;0.50;85.40;;;;;;5053601;28;20477;-43
2020/12/11 05:37:55;;;;;;;25.67;12.75;;;0.50;84.90;;;;;;5053477;28;20107;-44
2020/12/11 05:40:22;;;;;;;24.75;11.70;;;0.60;84.60;;;;;;5053872;28;20079;-44
2020/12/11 05:43:23;;;;;;;23.95;12.07;;;0.50;84.50;;;;;;5034711;28;20037;-45
2020/12/11 05:45:57;;;;;;;27.23;12.30;;;0.50;84.60;;;;;;5032310;28;20073;-48
2020/12/11 05:48:35;;;;;;;24.38;13.07;;;0.50;84.70;;;;;;5033855;28;20029;-43
2020/12/11 05:51:15;;;;;;;28.75;12.32;;;0.60;84.40;;;;;;5033594;28;20095;-44
2020/12/11 05:53:41;;;;;;;28.10;14.18;;;0.60;84.40;;;;;;5033624;28;20021;-45
2020/12/11 05:56:07;;;;;;;28.73;13.77;;;0.60;84.70;;;;;;5032211;28;20552;-46
2020/12/11 05:58:36;;;;;;;24.83;11.38;;;0.50;85.00;;;;;;5047253;28;20051;-45
2020/12/11 06:01:02;;;;;;;25.77;13.40;;;0.60;84.80;;;;;;5052755;28;20033;-46
2020/12/11 06:03:28;;;;;;;26.38;11.73;;;0.70;84.40;;;;;;5050861;28;20032;-45
2020/12/11 06:05:58;;;;;;;25.85;12.70;;;0.70;84.20;;;;;;5034980;28;20034;-46
2020/12/11 06:08:28;;;;;;;28.02;13.15;;;0.80;84.00;;;;;;5032972;28;20420;-45
2020/12/11 06:10:54;;;;;;;27.65;13.52;;;0.80;83.70;;;;;;5033122;28;20041;-43
2020/12/11 06:13:35;;;;;;;30.63;13.93;;;0.80;83.70;;;;;;5051401;28;20402;-43
2020/12/11 06:16:03;;;;;;;24.73;12.60;;;0.70;84.00;;;;;;5033006;28;20054;-44
2020/12/11 06:18:32;;;;;;;26.40;13.07;;;0.70;83.90;;;;;;5032727;28;20025;-44
2020/12/11 06:21:00;;;;;;;27.98;12.48;;;0.70;84.10;;;;;;5033419;28;20147;-43
2020/12/11 06:23:27;;;;;;;29.80;14.68;;;0.70;84.30;;;;;;5032772;28;20044;-48
2020/12/11 06:25:55;;;;;;;26.42;13.45;;;0.70;84.50;;;;;;5032687;28;20040;-44
2020/12/11 06:28:39;;;;;;;24.73;12.80;;;0.70;84.80;;;;;;5032753;28;20548;-44
2020/12/11 06:31:09;;;;;;;23.70;12.88;;;0.80;84.70;;;;;;5032751;28;20082;-46
2020/12/11 06:33:37;;;;;;;26.15;12.93;;;0.90;84.80;;;;;;5032592;28;20044;-46
2020/12/11 06:36:05;;;;;;;28.20;13.32;;;0.90;84.70;;;;;;5032800;28;20056;-43
2020/12/11 06:38:50;;;;;;;29.67;14.05;;;1.00;84.60;;;;;;5032615;28;20033;-45
2020/12/11 06:41:36;;;;;;;23.80;13.18;;;1.00;84.50;;;;;;5032496;28;20044;-44
2020/12/11 06:44:08;;;;;;;28.77;13.20;;;1.00;84.80;;;;;;5032492;28;20037;-43
2020/12/11 06:46:33;;;;;;;27.38;12.60;;;1.10;84.80;;;;;;5032067;28;20095;-44
2020/12/11 06:49:12;;;;;;;28.58;13.57;;;1.00;84.70;;;;;;5032257;28;20026;-45
2020/12/11 06:51:47;;;;;;;28.67;12.88;;;1.00;84.90;;;;;;5032383;28;20040;-46
2020/12/11 06:54:23;;;;;;;32.08;14.38;;;1.00;84.90;;;;;;5032515;28;20056;-45
2020/12/11 06:56:51;;;;;;;32.40;15.10;;;1.00;84.70;;;;;;5032099;28;20041;-45
2020/12/11 06:59:32;;;;;;;29.27;13.55;;;1.10;84.50;;;;;;5052159;28;20029;-45
2020/12/11 07:02:15;;;;;;;28.83;13.50;;;1.10;84.30;;;;;;5052407;28;20080;-44
2020/12/11 07:04:47;;;;;;;25.65;12.90;;;1.20;84.20;;;;;;5044176;28;20026;-44
2020/12/11 07:07:13;;;;;;;30.27;13.23;;;1.10;84.00;;;;;;5030754;28;20136;-48
2020/12/11 07:09:44;;;;;;;26.05;12.45;;;0.90;84.20;;;;;;5031661;28;20446;-44
2020/12/11 07:12:10;;;;;;;28.17;13.27;;;0.80;84.70;;;;;;5032758;28;20398;-44
2020/12/11 07:14:36;;;;;;;30.90;13.40;;;0.90;84.80;;;;;;5040077;28;20021;-45
2020/12/11 07:17:03;;;;;;;27.98;12.15;;;0.80;84.80;;;;;;5052194;28;20051;-46
2020/12/11 07:19:38;;;;;;;25.85;12.35;;;0.80;85.10;;;;;;5053452;28;20393;-44
2020/12/11 07:22:05;;;;;;;27.38;13.23;;;0.80;85.20;;;;;;5055918;28;20086;-49
2020/12/11 07:24:35;;;;;;;32.55;14.82;;;0.80;85.10;;;;;;5037927;28;20041;-47
2020/12/11 07:27:06;;;;;;;28.80;12.98;;;1.00;85.20;;;;;;5055659;28;20116;-44
2020/12/11 07:29:32;;;;;;;25.60;12.98;;;1.00;85.00;;;;;;5043217;28;20490;-44
2020/12/11 07:31:58;;;;;;;33.25;13.98;;;1.10;84.90;;;;;;5034721;28;20040;-47
2020/12/11 07:34:28;;;;;;;29.35;12.68;;;1.20;84.50;;;;;;5036118;28;20042;-49
2020/12/11 07:36:56;;;;;;;28.45;13.18;;;1.20;84.40;;;;;;5035711;28;20022;-47
2020/12/11 07:39:31;;;;;;;29.75;12.70;;;1.20;84.10;;;;;;5036032;28;20044;-46
2020/12/11 07:42:02;;;;;;;26.88;13.90;;;1.20;83.70;;;;;;5035704;28;20144;-46
2020/12/11 07:44:36;;;;;;;29.65;12.93;;;1.30;83.70;;;;;;5035569;28;20037;-44
2020/12/11 07:47:07;;;;;;;27.10;12.73;;;1.30;82.80;;;;;;5051078;28;20113;-46
2020/12/11 07:49:44;;;;;;;28.77;13.70;;;1.30;82.10;;;;;;5055109;28;20598;-44
2020/12/11 07:52:11;;;;;;;30.52;13.65;;;1.20;81.50;;;;;;5055461;28;20029;-46
2020/12/11 07:54:41;;;;;;;31.60;14.25;;;1.10;81.60;;;;;;5055308;28;20084;-44
2020/12/11 07:57:10;;;;;;;30.10;13.25;;;1.10;82.10;;;;;;5055534;28;21260;-45
2020/12/11 07:59:36;;;;;;;26.88;12.85;;;1.10;82.50;;;;;;5055272;28;20032;-47
2020/12/11 08:02:02;;;;;;;29.92;13.43;;;1.20;82.70;;;;;;5055322;28;20044;-46
2020/12/11 08:04:28;;;;;;;28.27;13.75;;;1.20;82.60;;;;;;5047827;28;20033;-43
2020/12/11 08:07:00;;;;;;;36.15;14.68;;;1.20;82.20;;;;;;5035426;28;20079;-44
2020/12/11 08:09:33;;;;;;;28.58;13.35;;;1.20;82.60;;;;;;5035558;28;20436;-45
2020/12/11 08:12:19;;;;;;;31.17;13.75;;;1.30;82.50;;;;;;5034971;28;20053;-46
2020/12/11 08:14:46;;;;;;;30.33;14.18;;;1.50;82.20;;;;;;5044101;28;20029;-43
2020/12/11 08:17:13;;;;;;;35.95;14.48;;;1.70;82.00;;;;;;5054477;28;20119;-46
2020/12/11 08:19:40;;;;;;;30.05;14.70;;;1.80;81.50;;;;;;5049562;28;20033;-43
2020/12/11 08:22:16;;;;;;;31.10;14.98;;;1.90;80.70;;;;;;5032629;28;20409;-44
2020/12/11 08:24:45;;;;;;;37.65;15.43;;;2.00;80.50;;;;;;5033409;28;20056;-45
2020/12/11 08:27:25;;;;;;;33.13;14.52;;;2.20;79.60;;;;;;5033606;28;20061;-46
2020/12/11 08:30:05;;;;;;;31.40;14.05;;;2.40;79.30;;;;;;5033102;28;20231;-45
2020/12/11 08:32:34;;;;;;;45.17;14.10;;;2.70;78.40;;;;;;5033425;28;20033;-45
2020/12/11 08:35:00;;;;;;;32.25;13.90;;;2.70;77.90;;;;;;5016006;28;20461;-49
2020/12/11 08:37:26;;;;;;;30.52;13.13;;;2.70;77.80;;;;;;5033944;28;20099;-46
2020/12/11 08:40:03;;;;;;;29.90;13.85;;;2.70;77.60;;;;;;5032943;28;20029;-45
2020/12/11 08:42:35;;;;;;;25.45;13.95;;;2.70;77.40;;;;;;5032816;28;20049;-43
2020/12/11 08:52:50;;;;;;;29.08;13.07;;;2.80;78.10;;;;;;5033340;28;20033;-48
2020/12/11 08:55:16;;;;;;;28.67;14.50;;;2.90;78.30;;;;;;5050470;28;20421;-47
2020/12/11 08:57:42;;;;;;;29.02;14.20;;;3.10;77.80;;;;;;5052810;28;20107;-46
2020/12/11 09:00:07;;;;;;;29.00;14.18;;;3.30;77.60;;;;;;5053216;28;20029;-43
2020/12/11 09:02:33;;;;;;;27.45;12.70;;;3.50;76.70;;;;;;5052990;28;20477;-45
2020/12/11 09:04:59;;;;;;;28.63;13.32;;;3.60;75.80;;;;;;5042332;28;20037;-45
2020/12/11 09:07:25;;;;;;;28.80;13.88;;;3.50;75.40;;;;;;5033644;28;20056;-47
2020/12/11 09:09:51;;;;;;;23.95;12.27;;;3.60;74.90;;;;;;5033104;28;20029;-45
2020/12/11 09:12:17;;;;;;;24.90;12.23;;;3.30;75.30;;;;;;5043357;28;20098;-44
2020/12/11 09:14:44;;;;;;;28.77;12.53;;;3.40;75.20;;;;;;5013594;28;735543;-44
2020/12/11 09:17:09;;;;;;;32.10;13.27;;;3.50;75.60;;;;;;5032756;28;20044;-47
2020/12/11 09:19:35;;;;;;;27.05;12.68;;;3.70;75.70;;;;;;5033540;28;20029;-45
2020/12/11 09:22:01;;;;;;;24.95;12.23;;;3.70;74.60;;;;;;5034002;28;20128;-46
2020/12/11 09:24:28;;;;;;;26.17;12.60;;;3.90;74.70;;;;;;5034143;28;20030;-45
2020/12/11 09:26:55;;;;;;;25.10;11.43;;;3.90;74.30;;;;;;5033947;28;20037;-46
2020/12/11 09:29:33;;;;;;;23.95;12.27;;;4.00;74.50;;;;;;5034391;28;20056;-44
2020/12/11 09:32:02;;;;;;;23.63;11.73;;;4.10;74.00;;;;;;5033793;28;20037;-44
2020/12/11 09:34:31;;;;;;;24.55;11.43;;;4.20;73.30;;;;;;5032317;28;20033;-47
2020/12/11 09:36:57;;;;;;;23.05;11.07;;;4.00;73.50;;;;;;5033710;28;20038;-44
2020/12/11 09:39:23;;;;;;;19.33;9.90;;;4.10;73.30;;;;;;5033674;28;20581;-46
2020/12/11 09:41:56;;;;;;;22.05;10.98;;;4.10;72.90;;;;;;5032501;28;20398;-43
2020/12/11 09:54:56;;;;;;;21.92;10.63;;;3.80;73.90;;;;;;5053571;28;20428;-44
2020/12/11 09:57:21;;;;;;;22.65;11.00;;;3.70;74.20;;;;;;5053286;28;20025;-46
2020/12/11 09:59:49;;;;;;;23.88;11.65;;;3.70;75.00;;;;;;5053051;28;20035;-46
2020/12/11 10:02:41;;;;;;;24.33;12.80;;;3.70;74.90;;;;;;5052341;28;20045;-45
2020/12/11 10:05:09;;;;;;;20.90;11.88;;;3.70;75.20;;;;;;5040354;28;20033;-42
2020/12/11 10:07:35;;;;;;;22.05;10.70;;;3.70;75.10;;;;;;5033209;28;20079;-48
2020/12/11 10:10:01;;;;;;;22.17;10.68;;;3.80;75.20;;;;;;5033215;28;20397;-48
2020/12/11 10:12:28;;;;;;;25.40;10.70;;;3.80;74.90;;;;;;5033169;28;20033;-45
2020/12/11 10:14:58;;;;;;;22.92;11.02;;;3.90;74.80;;;;;;5036336;28;20045;-47
2020/12/11 10:17:24;;;;;;;21.08;10.93;;;3.90;74.60;;;;;;5031964;28;20508;-45
2020/12/11 10:19:49;;;;;;;22.20;11.98;;;4.00;74.70;;;;;;5045804;28;20029;-45
2020/12/11 10:22:15;;;;;;;25.85;12.50;;;4.00;74.70;;;;;;5052410;28;20068;-47
2020/12/11 10:24:41;;;;;;;25.58;12.20;;;4.10;74.80;;;;;;5052338;28;20029;-45
2020/12/11 10:27:06;;;;;;;25.58;11.57;;;4.20;74.80;;;;;;5051134;28;20072;-44
2020/12/11 10:29:32;;;;;;;34.35;12.13;;;4.20;74.80;;;;;;5051121;28;20049;-46
2020/12/11 10:31:58;;;;;;;26.05;11.43;;;4.20;74.70;;;;;;5052667;28;20094;-48
2020/12/11 10:34:24;;;;;;;20.25;9.48;;;4.20;74.80;;;;;;5052558;28;20040;-48
2020/12/11 10:36:50;;;;;;;21.80;10.35;;;4.20;74.60;;;;;;5038313;28;20482;-44
2020/12/11 10:39:15;;;;;;;22.95;10.25;;;4.20;74.70;;;;;;5032392;28;20116;-46
2020/12/11 10:41:41;;;;;;;21.58;9.75;;;4.20;74.70;;;;;;5030863;28;20048;-47
2020/12/11 10:44:08;;;;;;;20.00;10.43;;;4.10;75.10;;;;;;5032512;28;20033;-47
2020/12/11 10:46:33;;;;;;;21.50;9.77;;;4.00;75.70;;;;;;5032274;28;20034;-46
2020/12/11 10:48:59;;;;;;;20.63;10.05;;;4.10;75.90;;;;;;5032351;28;20394;-46
2020/12/11 10:51:25;;;;;;;19.70;7.85;;;4.00;76.10;;;;;;5032162;28;20029;-45
2020/12/11 10:53:51;;;;;;;15.32;6.88;;;4.00;76.70;;;;;;5044670;28;20041;-45
2020/12/11 10:56:19;;;;;;;10.80;6.03;;;3.90;77.20;;;;;;5052460;28;20025;-47
2020/12/11 10:58:45;;;;;;;12.70;5.47;;;3.90;77.90;;;;;;5051826;28;20044;-46
2020/12/11 11:01:13;;;;;;;14.43;5.75;;;3.70;79.10;;;;;;5052268;28;20056;-47
2020/12/11 11:03:39;;;;;;;15.13;6.00;;;3.50;80.20;;;;;;5051946;28;20029;-45
2020/12/11 11:06:47;;;;;;;12.48;6.22;;;3.50;80.90;;;;;;5031175;28;20033;-48
2020/12/11 11:11:38;;;;;;;11.68;6.20;;;3.40;81.80;;;;;;5032243;28;20033;-45
2020/12/11 11:19:36;;;;;;;11.32;4.28;;;3.30;83.50;;;;;;5032018;28;20140;-45
2020/12/11 11:27:32;;;;;;;7.50;3.90;;;3.30;84.00;;;;;;5041534;28;20086;-44
2020/12/11 11:29:58;;;;;;;9.40;4.68;;;3.30;84.20;;;;;;5051944;28;20079;-46
2020/12/11 11:32:24;;;;;;;10.25;4.45;;;3.20;84.40;;;;;;5051626;28;20032;-45
2020/12/11 11:34:49;;;;;;;10.63;5.15;;;3.20;84.50;;;;;;5050225;28;20055;-43
2020/12/11 11:37:15;;;;;;;8.70;4.35;;;3.20;84.70;;;;;;5050124;28;20064;-43
2020/12/11 11:39:41;;;;;;;9.63;4.43;;;3.20;84.80;;;;;;5051337;28;20032;-44
2020/12/11 11:42:06;;;;;;;13.52;5.05;;;3.20;85.00;;;;;;5050325;28;20414;-45
2020/12/11 11:44:54;;;;;;;9.10;4.45;;;3.10;85.10;;;;;;5039573;28;20034;-45
2020/12/11 11:47:21;;;;;;;11.70;4.45;;;3.00;85.20;;;;;;5031806;28;20034;-46
2020/12/11 11:54:57;;;;;;;9.65;4.47;;;3.10;85.70;;;;;;5032028;28;20057;-45
2020/12/11 11:57:23;;;;;;;10.32;4.65;;;3.20;85.50;;;;;;5036623;28;20075;-45
2020/12/11 11:59:48;;;;;;;10.35;4.95;;;3.20;85.30;;;;;;5050045;28;20074;-43
2020/12/11 12:02:14;;;;;;;10.35;5.00;;;3.20;85.30;;;;;;5050687;28;20041;-43
2020/12/11 12:04:41;;;;;;;13.55;5.50;;;3.20;85.40;;;;;;5043435;28;20397;-43
2020/12/11 12:07:07;;;;;;;12.07;4.60;;;3.20;85.40;;;;;;5035630;28;20029;-44
2020/12/11 12:09:33;;;;;;;7.63;4.65;;;3.20;85.60;;;;;;5035287;28;20040;-45
2020/12/11 12:11:59;;;;;;;8.65;4.53;;;3.20;85.60;;;;;;5040381;28;20086;-44
2020/12/11 12:14:25;;;;;;;11.40;4.68;;;3.20;85.40;;;;;;5050910;28;20055;-48
2020/12/11 12:16:53;;;;;;;7.15;4.18;;;3.20;85.50;;;;;;5054770;28;20401;-44
2020/12/11 12:19:27;;;;;;;5.18;3.08;;;3.20;85.40;;;;;;5053857;28;20183;-50
2020/12/11 12:29:36;;;;;;;7.10;3.50;;;3.20;85.60;;;;;;5054573;28;20047;-46
2020/12/11 12:32:14;;;;;;;5.50;3.10;;;3.10;85.60;;;;;;5054896;28;20044;-45
2020/12/11 12:40:16;;;;;;;6.88;2.90;;;3.20;85.20;;;;;;5054452;28;20036;-45
2020/12/11 12:45:27;;;;;;;5.03;2.60;;;3.30;85.00;;;;;;5049422;28;20076;-46
2020/12/11 12:47:53;;;;;;;4.15;2.47;;;3.30;84.90;;;;;;5033867;28;20029;-46
2020/12/11 12:50:19;;;;;;;6.07;2.40;;;3.30;85.00;;;;;;5033869;28;20029;-47
2020/12/11 12:52:45;;;;;;;4.78;2.15;;;3.40;84.90;;;;;;5034046;28;20037;-48
2020/12/11 12:55:14;;;;;;;3.90;2.28;;;3.30;85.10;;;;;;5034190;28;20112;-46
2020/12/11 12:57:46;;;;;;;4.13;1.95;;;3.40;85.30;;;;;;5040967;28;20032;-44
2020/12/11 13:00:27;;;;;;;3.03;1.80;;;3.40;85.30;;;;;;5052516;28;20083;-47
2020/12/11 13:05:22;;;;;;;4.53;2.20;;;3.40;85.50;;;;;;5040320;28;20021;-44
2020/12/11 13:07:49;;;;;;;2.38;1.92;;;3.40;85.60;;;;;;5033952;28;20107;-44
2020/12/11 13:10:15;;;;;;;2.85;1.58;;;3.40;85.70;;;;;;5034599;28;20536;-46
2020/12/11 13:12:43;;;;;;;2.53;1.77;;;3.40;85.90;;;;;;5032737;28;20033;-45
2020/12/11 13:15:09;;;;;;;2.20;1.40;;;3.50;86.00;;;;;;5033894;28;20504;-47
2020/12/11 13:17:34;;;;;;;2.20;1.23;;;3.50;86.20;;;;;;5032569;28;20025;-45
2020/12/11 13:20:04;;;;;;;2.35;1.00;;;3.60;86.30;;;;;;5033802;28;20029;-48
2020/12/11 13:27:43;;;;;;;2.92;1.42;;;3.70;86.40;;;;;;5049254;28;20032;-46
2020/12/11 13:30:09;;;;;;;1.52;1.20;;;3.70;86.50;;;;;;5053647;28;20536;-44
2020/12/11 13:32:35;;;;;;;4.50;1.50;;;3.70;86.60;;;;;;5053098;28;20032;-48
2020/12/11 13:35:01;;;;;;;2.72;1.50;;;3.80;86.60;;;;;;5053436;28;20449;-48
2020/12/11 13:37:28;;;;;;;2.70;1.70;;;3.90;86.70;;;;;;5053602;28;20115;-46
2020/12/11 13:39:55;;;;;;;2.40;1.42;;;3.90;86.60;;;;;;5053381;28;20029;-45
2020/12/11 13:42:21;;;;;;;3.75;1.40;;;3.90;86.70;;;;;;5050402;28;20469;-45
2020/12/11 13:44:47;;;;;;;2.95;1.30;;;4.00;86.70;;;;;;5033173;28;20033;-48
2020/12/11 13:47:13;;;;;;;7.50;1.73;;;3.90;86.70;;;;;;5031903;28;20036;-45